createdAt,value
2023-04-10T00:00:30.918Z,70.23
2023-04-10T00:01:02.386Z,70.39
2023-04-10T00:01:36.120Z,70.62
2023-04-10T00:02:07.651Z,69.99
2023-04-10T00:02:39.191Z,70.19
2023-04-10T00:03:11.044Z,70.34
2023-04-10T00:03:42.879Z,70.33
2023-04-10T00:04:15.669Z,70.07
2023-04-10T00:04:47.595Z,69.93
2023-04-10T00:05:19.279Z,69.52
2023-04-10T00:05:50.868Z,70.12
2023-04-10T00:06:22.294Z,70.10
2023-04-10T00:06:53.724Z,70.39
2023-04-10T00:07:25.472Z,69.75
2023-04-10T00:07:56.942Z,69.93
2023-04-10T00:08:28.317Z,69.72
2023-04-10T00:08:59.684Z,69.91
2023-04-10T00:09:31.112Z,70.16
2023-04-10T00:10:02.525Z,70.18
2023-04-10T00:10:33.901Z,70.49
2023-04-10T00:11:05.882Z,70.34
2023-04-10T00:11:37.267Z,69.84
2023-04-10T00:12:08.796Z,70.16
2023-04-10T00:12:40.201Z,70.08
2023-04-10T00:13:11.652Z,70.25
2023-04-10T00:13:43.086Z,69.86
2023-04-10T00:14:14.477Z,69.92
2023-04-10T00:14:46.154Z,69.86
2023-04-10T00:15:17.533Z,69.95
2023-04-10T00:15:50.001Z,69.71
2023-04-10T00:16:21.465Z,70.14
2023-04-10T00:16:53.115Z,70.07
2023-04-10T00:17:24.858Z,69.91
2023-04-10T00:17:56.312Z,70.05
2023-04-10T00:18:28.676Z,70.07
2023-04-10T00:19:00.206Z,70.13
2023-04-10T00:19:31.908Z,70.49
2023-04-10T00:20:05.165Z,70.12
2023-04-10T00:20:36.579Z,70.04
2023-04-10T00:21:08.066Z,70.56
2023-04-10T00:21:39.487Z,71.08
2023-04-10T00:22:11.006Z,70.23
2023-04-10T00:22:43.101Z,70.58
2023-04-10T00:23:14.544Z,70.40
2023-04-10T00:23:46.135Z,70.59
2023-04-10T00:24:17.609Z,70.65
2023-04-10T00:24:49.148Z,70.38
2023-04-10T00:25:22.885Z,70.45
2023-04-10T00:25:54.274Z,71.02
2023-04-10T00:26:26.802Z,70.28
2023-04-10T00:26:58.248Z,70.45
2023-04-10T00:27:29.907Z,70.50
2023-04-10T00:28:01.347Z,70.34
2023-04-10T00:28:32.808Z,70.13
2023-04-10T00:29:04.343Z,69.98
2023-04-10T00:29:35.766Z,70.54
2023-04-10T00:30:08.145Z,70.73
2023-04-10T00:30:39.564Z,71.07
2023-04-10T00:31:11.029Z,70.94
2023-04-10T00:31:42.728Z,70.64
2023-04-10T00:32:14.229Z,70.61
2023-04-10T00:32:45.897Z,70.75
2023-04-10T00:33:17.387Z,71.01
2023-04-10T00:33:48.827Z,70.89
2023-04-10T00:34:20.305Z,70.74
2023-04-10T00:34:51.793Z,70.82
2023-04-10T00:35:23.239Z,71.04
2023-04-10T00:35:54.682Z,70.76
2023-04-10T00:36:26.949Z,70.74
2023-04-10T00:36:59.203Z,70.96
2023-04-10T00:37:30.787Z,70.57
2023-04-10T00:38:02.147Z,70.80
2023-04-10T00:38:33.838Z,70.61
2023-04-10T00:39:05.329Z,70.98
2023-04-10T00:39:36.759Z,70.59
2023-04-10T00:40:08.714Z,71.02
2023-04-10T00:40:40.137Z,70.96
2023-04-10T00:41:11.752Z,70.68
2023-04-10T00:41:43.179Z,71.04
2023-04-10T00:42:14.558Z,71.09
2023-04-10T00:42:46.069Z,70.52
2023-04-10T00:43:20.212Z,70.20
2023-04-10T00:43:56.970Z,70.35
2023-04-10T00:44:28.646Z,71.10
2023-04-10T00:45:00.560Z,71.19
2023-04-10T00:45:31.977Z,71.06
2023-04-10T00:46:05.503Z,71.22
2023-04-10T00:46:38.113Z,71.15
2023-04-10T00:47:09.546Z,71.39
2023-04-10T00:47:41.482Z,71.11
2023-04-10T00:48:13.227Z,71.67
2023-04-10T00:48:44.834Z,71.66
2023-04-10T00:49:18.369Z,71.46
2023-04-10T00:49:50.652Z,70.89
2023-04-10T00:50:22.396Z,71.74
2023-04-10T00:50:54.121Z,70.99
2023-04-10T00:51:26.486Z,71.01
2023-04-10T00:51:58.590Z,71.09
2023-04-10T00:52:30.367Z,70.69
2023-04-10T00:53:03.172Z,71.33
2023-04-10T00:53:34.626Z,70.94
2023-04-10T00:54:06.766Z,71.09
2023-04-10T00:54:38.614Z,71.25
2023-04-10T00:55:11.077Z,71.31
2023-04-10T00:55:43.638Z,71.15
2023-04-10T00:56:15.492Z,71.67
2023-04-10T00:56:47.764Z,71.17
2023-04-10T00:57:19.267Z,71.32
2023-04-10T00:57:50.671Z,70.99
2023-04-10T00:58:22.069Z,71.42
2023-04-10T00:58:53.464Z,71.14
2023-04-10T00:59:25.357Z,71.12
2023-04-10T00:59:56.969Z,71.13
2023-04-10T01:00:28.513Z,71.42
2023-04-10T01:01:00.000Z,71.52
2023-04-10T01:01:31.506Z,72.18
2023-04-10T01:02:03.650Z,71.92
2023-04-10T01:02:35.555Z,72.06
2023-04-10T01:03:12.308Z,71.40
2023-04-10T01:03:44.387Z,71.53
2023-04-10T01:04:16.610Z,71.33
2023-04-10T01:04:48.497Z,71.57
2023-04-10T01:05:20.173Z,72.03
2023-04-10T01:06:16.502Z,71.63
2023-04-10T01:07:04.634Z,72.40
2023-04-10T01:07:54.168Z,71.78
2023-04-10T01:08:44.123Z,72.15
2023-04-10T01:09:24.284Z,71.53
2023-04-10T01:10:15.593Z,71.61
2023-04-10T01:10:58.503Z,72.02
2023-04-10T01:11:53.483Z,72.22
2023-04-10T01:12:52.056Z,72.16
2023-04-10T01:13:34.647Z,71.94
2023-04-10T01:14:27.762Z,71.77
2023-04-10T01:15:10.752Z,71.81
2023-04-10T01:15:58.145Z,72.01
2023-04-10T01:16:46.904Z,71.72
2023-04-10T01:17:24.158Z,72.06
2023-04-10T01:18:09.990Z,72.27
2023-04-10T01:18:48.682Z,72.40
2023-04-10T01:19:31.696Z,72.68
2023-04-10T01:20:12.420Z,72.52
2023-04-10T01:20:43.985Z,72.41
2023-04-10T01:21:17.120Z,72.71
2023-04-10T01:21:49.280Z,72.29
2023-04-10T01:22:26.428Z,72.12
2023-04-10T01:23:13.653Z,72.30
2023-04-10T01:24:14.680Z,72.23
2023-04-10T01:25:09.870Z,72.34
2023-04-10T01:25:48.306Z,72.68
2023-04-10T01:26:42.870Z,72.78
2023-04-10T01:27:40.679Z,72.40
2023-04-10T01:28:39.163Z,72.16
2023-04-10T01:29:15.369Z,72.27
2023-04-10T01:29:51.678Z,72.41
2023-04-10T01:30:24.202Z,72.65
2023-04-10T01:30:59.209Z,72.23
2023-04-10T01:31:42.147Z,72.85
2023-04-10T01:32:18.049Z,72.53
2023-04-10T01:32:56.006Z,72.33
2023-04-10T01:33:35.635Z,72.49
2023-04-10T01:34:16.565Z,72.41
2023-04-10T01:34:51.023Z,72.76
2023-04-10T01:35:24.357Z,72.70
2023-04-10T01:35:59.318Z,73.32
2023-04-10T01:36:36.253Z,72.81
2023-04-10T01:37:17.254Z,72.81
2023-04-10T01:37:51.952Z,72.70
2023-04-10T01:38:26.622Z,72.99
2023-04-10T01:38:58.761Z,72.90
2023-04-10T01:39:31.484Z,72.87
2023-04-10T01:40:06.646Z,72.64
2023-04-10T01:40:42.123Z,73.23
2023-04-10T01:41:14.591Z,73.08
2023-04-10T01:41:46.966Z,73.03
2023-04-10T01:42:20.222Z,73.01
2023-04-10T01:42:55.508Z,73.09
2023-04-10T01:43:29.148Z,73.07
2023-04-10T01:44:04.381Z,72.82
2023-04-10T01:44:41.703Z,72.59
2023-04-10T01:45:18.626Z,72.85
2023-04-10T01:45:51.839Z,72.74
2023-04-10T01:46:25.035Z,72.84
2023-04-10T01:46:57.991Z,72.79
2023-04-10T01:47:30.097Z,72.92
2023-04-10T01:48:01.921Z,72.92
2023-04-10T01:48:33.506Z,72.84
2023-04-10T01:49:05.461Z,72.67
2023-04-10T01:49:44.364Z,72.63
2023-04-10T01:50:16.749Z,72.71
2023-04-10T01:50:49.016Z,72.88
2023-04-10T01:51:21.587Z,72.79
2023-04-10T01:51:58.196Z,72.88
2023-04-10T01:52:31.325Z,72.32
2023-04-10T01:53:06.287Z,72.20
2023-04-10T01:53:39.554Z,72.31
2023-04-10T01:54:11.833Z,72.81
2023-04-10T01:54:45.534Z,72.67
2023-04-10T01:55:17.851Z,72.38
2023-04-10T01:55:50.837Z,72.19
2023-04-10T01:56:22.444Z,72.69
2023-04-10T01:56:54.353Z,72.54
2023-04-10T01:57:26.165Z,72.83
2023-04-10T01:57:59.457Z,72.87
2023-04-10T01:58:31.187Z,72.99
2023-04-10T01:59:04.144Z,72.66
2023-04-10T01:59:38.029Z,72.48
2023-04-10T02:00:10.173Z,73.23
2023-04-10T02:00:43.125Z,72.79
2023-04-10T02:01:29.059Z,72.79
2023-04-10T02:02:01.992Z,72.84
2023-04-10T02:02:34.087Z,73.09
2023-04-10T02:03:05.958Z,72.96
2023-04-10T02:03:38.033Z,72.53
2023-04-10T02:04:10.032Z,73.09
2023-04-10T02:04:41.807Z,72.49
2023-04-10T02:05:16.373Z,72.64
2023-04-10T02:06:05.942Z,72.50
2023-04-10T02:07:04.672Z,72.16
2023-04-10T02:08:00.910Z,72.58
2023-04-10T02:08:39.771Z,72.42
2023-04-10T02:09:21.858Z,72.61
2023-04-10T02:10:05.371Z,72.60
2023-04-10T02:10:51.844Z,72.74
2023-04-10T02:11:32.179Z,72.73
2023-04-10T02:12:09.224Z,72.89
2023-04-10T02:12:54.044Z,72.71
2023-04-10T02:13:27.688Z,72.57
2023-04-10T02:14:05.914Z,73.10
2023-04-10T02:14:41.452Z,72.78
2023-04-10T02:15:13.042Z,72.56
2023-04-10T02:15:47.733Z,72.88
2023-04-10T02:16:22.176Z,72.80
2023-04-10T02:16:56.091Z,72.66
2023-04-10T02:17:29.973Z,72.55
2023-04-10T02:18:05.014Z,72.54
2023-04-10T02:18:38.322Z,72.64
2023-04-10T02:19:11.443Z,72.75
2023-04-10T02:19:45.467Z,72.51
2023-04-10T02:20:18.592Z,73.06
2023-04-10T02:20:50.557Z,72.76
2023-04-10T02:21:22.011Z,72.81
2023-04-10T02:21:54.049Z,72.95
2023-04-10T02:22:26.698Z,72.60
2023-04-10T02:23:03.250Z,72.72
2023-04-10T02:23:36.762Z,72.61
2023-04-10T02:24:08.252Z,72.75
2023-04-10T02:24:39.667Z,72.90
2023-04-10T02:25:11.758Z,73.03
2023-04-10T02:25:43.270Z,72.53
2023-04-10T02:26:14.648Z,72.65
2023-04-10T02:26:53.133Z,72.60
2023-04-10T02:27:32.348Z,72.71
2023-04-10T02:28:05.518Z,72.93
2023-04-10T02:28:40.131Z,72.92
2023-04-10T02:29:11.902Z,72.84
2023-04-10T02:29:43.316Z,72.58
2023-04-10T02:30:14.846Z,72.76
2023-04-10T02:30:46.269Z,72.80
2023-04-10T02:31:17.903Z,72.44
2023-04-10T02:31:50.492Z,72.95
2023-04-10T02:32:22.001Z,72.69
2023-04-10T02:32:53.449Z,72.82
2023-04-10T02:33:24.851Z,72.92
2023-04-10T02:33:56.353Z,72.96
2023-04-10T02:34:28.053Z,72.99
2023-04-10T02:34:59.982Z,73.01
2023-04-10T02:35:31.824Z,72.78
2023-04-10T02:36:03.562Z,73.04
2023-04-10T02:36:36.361Z,73.36
2023-04-10T02:37:07.913Z,73.07
2023-04-10T02:37:40.025Z,73.27
2023-04-10T02:38:11.520Z,72.79
2023-04-10T02:38:43.129Z,72.64
2023-04-10T02:39:14.584Z,73.15
2023-04-10T02:39:46.127Z,72.87
2023-04-10T02:40:18.094Z,73.25
2023-04-10T02:40:50.354Z,73.29
2023-04-10T02:41:22.543Z,73.30
2023-04-10T02:41:54.117Z,73.30
2023-04-10T02:42:25.565Z,73.06
2023-04-10T02:42:57.011Z,73.23
2023-04-10T02:43:29.598Z,73.09
2023-04-10T02:44:01.651Z,73.35
2023-04-10T02:44:33.134Z,73.14
2023-04-10T02:45:05.061Z,73.15
2023-04-10T02:45:36.495Z,72.91
2023-04-10T02:46:08.072Z,73.33
2023-04-10T02:46:39.523Z,73.31
2023-04-10T02:47:11.278Z,73.15
2023-04-10T02:47:42.667Z,73.34
2023-04-10T02:48:14.572Z,73.05
2023-04-10T02:48:46.012Z,73.10
2023-04-10T02:50:07.375Z,73.10
2023-04-10T02:50:39.114Z,73.30
2023-04-10T02:51:10.607Z,73.50
2023-04-10T02:51:42.174Z,73.33
2023-04-10T02:52:13.692Z,73.21
2023-04-10T02:52:45.316Z,73.50
2023-04-10T02:53:16.917Z,73.31
2023-04-10T02:53:48.708Z,73.42
2023-04-10T02:54:20.365Z,73.42
2023-04-10T02:54:51.818Z,73.37
2023-04-10T02:55:23.511Z,73.10
2023-04-10T02:55:55.049Z,73.51
2023-04-10T02:56:27.199Z,73.13
2023-04-10T02:56:58.699Z,73.27
2023-04-10T02:57:30.300Z,73.14
2023-04-10T02:58:01.684Z,73.20
2023-04-10T02:58:33.363Z,73.07
2023-04-10T02:59:04.743Z,73.04
2023-04-10T02:59:36.495Z,73.25
2023-04-10T03:00:08.716Z,73.38
2023-04-10T03:00:40.411Z,73.39
2023-04-10T03:01:12.808Z,73.01
2023-04-10T03:01:46.277Z,73.18
2023-04-10T03:02:17.871Z,73.48
2023-04-10T03:02:49.617Z,73.40
2023-04-10T03:03:21.394Z,73.42
2023-04-10T03:03:53.223Z,73.45
2023-04-10T03:04:25.229Z,73.41
2023-04-10T03:04:56.979Z,73.68
2023-04-10T03:05:29.031Z,73.24
2023-04-10T03:06:00.458Z,73.49
2023-04-10T03:06:32.315Z,73.21
2023-04-10T03:07:03.762Z,73.40
2023-04-10T03:07:35.145Z,73.46
2023-04-10T03:08:06.665Z,73.23
2023-04-10T03:08:38.115Z,72.91
2023-04-10T03:09:09.531Z,73.12
2023-04-10T03:09:40.929Z,73.21
2023-04-10T03:10:12.611Z,73.46
2023-04-10T03:10:45.693Z,73.17
2023-04-10T03:11:17.139Z,73.23
2023-04-10T03:11:48.775Z,73.67
2023-04-10T03:12:20.431Z,73.22
2023-04-10T03:12:51.755Z,73.37
2023-04-10T03:13:26.147Z,73.45
2023-04-10T03:14:00.350Z,73.27
2023-04-10T03:14:31.769Z,73.18
2023-04-10T03:15:03.311Z,73.24
2023-04-10T03:15:34.749Z,73.44
2023-04-10T03:16:06.616Z,73.55
2023-04-10T03:16:38.096Z,73.29
2023-04-10T03:17:09.590Z,73.47
2023-04-10T03:17:40.991Z,73.61
2023-04-10T03:18:12.537Z,73.23
2023-04-10T03:18:44.437Z,73.51
2023-04-10T03:19:16.495Z,74.21
2023-04-10T03:19:47.899Z,73.60
2023-04-10T03:20:19.278Z,73.70
2023-04-10T03:20:50.881Z,73.45
2023-04-10T03:21:22.534Z,73.48
2023-04-10T03:21:53.934Z,73.88
2023-04-10T03:22:25.536Z,73.40
2023-04-10T03:22:57.053Z,73.88
2023-04-10T03:23:28.792Z,73.82
2023-04-10T03:24:00.955Z,73.68
2023-04-10T03:24:32.327Z,73.69
2023-04-10T03:25:03.822Z,73.85
2023-04-10T03:25:35.372Z,73.52
2023-04-10T03:26:07.228Z,73.64
2023-04-10T03:26:38.934Z,73.54
2023-04-10T03:27:10.490Z,73.69
2023-04-10T03:27:42.022Z,74.18
2023-04-10T03:28:13.670Z,74.33
2023-04-10T03:28:45.107Z,73.75
2023-04-10T03:29:18.920Z,73.58
2023-04-10T03:29:50.560Z,73.59
2023-04-10T03:30:21.963Z,73.89
2023-04-10T03:30:53.501Z,73.92
2023-04-10T03:31:24.996Z,73.83
2023-04-10T03:31:57.463Z,73.46
2023-04-10T03:32:31.314Z,73.69
2023-04-10T03:33:03.149Z,73.68
2023-04-10T03:33:34.536Z,73.92
2023-04-10T03:34:06.030Z,74.12
2023-04-10T03:34:37.468Z,74.25
2023-04-10T03:35:10.004Z,73.94
2023-04-10T03:35:42.007Z,74.19
2023-04-10T03:36:13.524Z,74.02
2023-04-10T03:36:45.082Z,74.40
2023-04-10T03:37:16.607Z,74.12
2023-04-10T03:37:48.019Z,74.37
2023-04-10T03:38:19.557Z,74.58
2023-04-10T03:38:53.079Z,74.18
2023-04-10T03:39:24.708Z,73.96
2023-04-10T03:39:56.360Z,74.40
2023-04-10T03:40:27.810Z,73.97
2023-04-10T03:40:59.196Z,73.86
2023-04-10T03:41:31.033Z,74.18
2023-04-10T03:42:02.494Z,74.12
2023-04-10T03:42:33.917Z,73.96
2023-04-10T03:43:05.702Z,73.91
2023-04-10T03:43:37.139Z,74.55
2023-04-10T03:44:08.619Z,73.98
2023-04-10T03:44:40.144Z,74.14
2023-04-10T03:45:12.255Z,73.94
2023-04-10T03:45:43.670Z,74.41
2023-04-10T03:46:15.441Z,74.14
2023-04-10T03:46:46.981Z,74.46
2023-04-10T03:47:18.582Z,74.20
2023-04-10T03:47:50.005Z,74.33
2023-04-10T03:48:21.501Z,73.99
2023-04-10T03:48:53.927Z,74.03
2023-04-10T03:49:25.517Z,74.19
2023-04-10T03:49:57.092Z,74.05
2023-04-10T03:50:28.515Z,74.38
2023-04-10T03:50:59.929Z,74.41
2023-04-10T03:51:31.595Z,74.62
2023-04-10T03:52:03.030Z,74.22
2023-04-10T03:52:34.649Z,74.43
2023-04-10T03:53:06.123Z,74.20
2023-04-10T03:53:37.534Z,74.22
2023-04-10T03:54:09.060Z,74.48
2023-04-10T03:54:40.590Z,74.11
2023-04-10T03:55:12.144Z,74.05
2023-04-10T03:55:43.547Z,73.93
2023-04-10T03:56:15.005Z,74.41
2023-04-10T03:56:46.490Z,73.97
2023-04-10T03:57:19.347Z,74.40
2023-04-10T03:57:50.790Z,74.22
2023-04-10T03:58:22.242Z,74.17
2023-04-10T03:58:53.620Z,74.00
2023-04-10T03:59:37.370Z,74.19
2023-04-10T04:00:10.891Z,74.23
2023-04-10T04:00:42.651Z,74.19
2023-04-10T04:01:14.255Z,74.49
2023-04-10T04:01:45.929Z,74.58
2023-04-10T04:02:17.860Z,74.29
2023-04-10T04:02:52.576Z,74.23
2023-04-10T04:03:24.562Z,74.45
2023-04-10T04:03:56.482Z,74.32
2023-04-10T04:04:28.176Z,74.44
2023-04-10T04:04:59.882Z,74.32
2023-04-10T04:05:32.362Z,74.10
2023-04-10T04:06:04.096Z,74.04
2023-04-10T04:06:35.467Z,73.80
2023-04-10T04:07:06.867Z,73.96
2023-04-10T04:07:38.331Z,74.29
2023-04-10T04:08:09.700Z,74.49
2023-04-10T04:08:41.072Z,74.09
2023-04-10T04:09:12.415Z,74.25
2023-04-10T04:09:43.880Z,73.95
2023-04-10T04:10:15.348Z,74.08
2023-04-10T04:10:46.886Z,73.51
2023-04-10T04:11:18.278Z,73.84
2023-04-10T04:11:49.695Z,73.51
2023-04-10T04:12:21.061Z,73.67
2023-04-10T04:12:52.657Z,73.87
2023-04-10T04:13:24.177Z,73.57
2023-04-10T04:13:55.830Z,73.69
2023-04-10T04:14:27.606Z,73.53
2023-04-10T04:14:59.109Z,73.68
2023-04-10T04:15:30.618Z,73.34
2023-04-10T04:16:02.081Z,73.76
2023-04-10T04:16:33.612Z,73.65
2023-04-10T04:17:05.398Z,74.06
2023-04-10T04:17:37.277Z,73.96
2023-04-10T04:18:09.501Z,73.86
2023-04-10T04:18:40.860Z,73.74
2023-04-10T04:19:12.284Z,73.78
2023-04-10T04:19:43.884Z,73.59
2023-04-10T04:20:15.717Z,74.02
2023-04-10T04:20:47.147Z,73.71
2023-04-10T04:21:18.585Z,73.71
2023-04-10T04:21:50.205Z,73.63
2023-04-10T04:22:21.663Z,73.60
2023-04-10T04:22:53.146Z,73.81
2023-04-10T04:23:24.537Z,73.86
2023-04-10T04:23:55.969Z,73.76
2023-04-10T04:24:27.513Z,74.06
2023-04-10T04:24:59.079Z,73.67
2023-04-10T04:25:30.768Z,73.80
2023-04-10T04:26:02.234Z,73.71
2023-04-10T04:26:33.838Z,73.81
2023-04-10T04:27:05.331Z,73.79
2023-04-10T04:27:37.540Z,73.61
2023-04-10T04:28:09.908Z,73.95
2023-04-10T04:28:41.312Z,74.04
2023-04-10T04:29:12.676Z,74.10
2023-04-10T04:29:44.067Z,73.84
2023-04-10T04:30:15.448Z,73.73
2023-04-10T04:30:46.806Z,73.92
2023-04-10T04:31:18.407Z,73.82
2023-04-10T04:31:50.492Z,73.52
2023-04-10T04:32:22.062Z,73.85
2023-04-10T04:32:53.517Z,73.92
2023-04-10T04:33:24.905Z,73.91
2023-04-10T04:33:56.473Z,73.71
2023-04-10T04:34:27.991Z,73.79
2023-04-10T04:34:59.366Z,74.10
2023-04-10T04:35:31.088Z,73.75
2023-04-10T04:36:02.595Z,73.76
2023-04-10T04:36:34.076Z,73.55
2023-04-10T04:37:05.571Z,74.02
2023-04-10T04:37:36.951Z,74.20
2023-04-10T04:38:08.368Z,74.05
2023-04-10T04:38:39.888Z,74.28
2023-04-10T04:39:11.277Z,74.14
2023-04-10T04:39:42.626Z,74.07
2023-04-10T04:40:14.077Z,74.08
2023-04-10T04:40:46.169Z,74.19
2023-04-10T04:41:18.786Z,74.50
2023-04-10T04:41:51.831Z,73.98
2023-04-10T04:42:23.265Z,74.06
2023-04-10T04:42:54.854Z,74.35
2023-04-10T04:43:26.322Z,74.50
2023-04-10T04:44:02.157Z,74.27
2023-04-10T04:44:33.569Z,74.14
2023-04-10T04:45:05.630Z,74.59
2023-04-10T04:45:37.089Z,74.63
2023-04-10T04:46:08.664Z,74.45
2023-04-10T04:46:41.467Z,74.17
2023-04-10T04:47:14.608Z,74.42
2023-04-10T04:47:46.020Z,73.96
2023-04-10T04:48:17.915Z,74.31
2023-04-10T04:48:49.320Z,74.40
2023-04-10T04:49:20.755Z,74.74
2023-04-10T04:49:52.353Z,74.58
2023-04-10T04:50:23.732Z,74.54
2023-04-10T04:50:55.121Z,74.80
2023-04-10T04:51:27.039Z,74.88
2023-04-10T04:51:58.436Z,74.52
2023-04-10T04:52:29.805Z,74.89
2023-04-10T04:53:01.184Z,74.47
2023-04-10T04:53:32.770Z,74.96
2023-04-10T04:54:04.498Z,74.85
2023-04-10T04:54:35.945Z,74.80
2023-04-10T04:55:08.512Z,74.99
2023-04-10T04:55:39.930Z,75.00
2023-04-10T04:56:11.447Z,74.86
2023-04-10T04:56:43.036Z,74.45
2023-04-10T04:57:14.386Z,74.80
2023-04-10T04:57:45.778Z,74.98
2023-04-10T04:58:17.293Z,74.55
2023-04-10T04:58:48.883Z,74.73
2023-04-10T04:59:20.398Z,74.61
2023-04-10T04:59:51.951Z,74.47
2023-04-10T05:00:23.461Z,74.65
2023-04-10T05:00:55.123Z,74.60
2023-04-10T05:01:26.673Z,74.86
2023-04-10T05:01:58.512Z,74.60
2023-04-10T05:02:30.184Z,74.47
2023-04-10T05:03:01.812Z,74.92
2023-04-10T05:03:33.568Z,74.34
2023-04-10T05:04:05.427Z,74.26
2023-04-10T05:04:37.126Z,74.24
2023-04-10T05:05:09.035Z,74.43
2023-04-10T05:05:40.664Z,74.59
2023-04-10T05:06:12.408Z,74.69
2023-04-10T05:06:43.744Z,74.60
2023-04-10T05:07:15.877Z,74.60
2023-04-10T05:07:47.329Z,74.81
2023-04-10T05:08:18.741Z,74.52
2023-04-10T05:08:51.238Z,74.49
2023-04-10T05:09:22.630Z,74.80
2023-04-10T05:09:53.985Z,74.81
2023-04-10T05:10:25.826Z,75.00
2023-04-10T05:10:57.232Z,74.69
2023-04-10T05:11:28.729Z,74.73
2023-04-10T05:12:00.254Z,74.88
2023-04-10T05:12:31.768Z,74.71
2023-04-10T05:13:03.188Z,74.94
2023-04-10T05:13:34.819Z,74.71
2023-04-10T05:14:06.270Z,74.77
2023-04-10T05:14:37.705Z,74.75
2023-04-10T05:15:09.875Z,74.68
2023-04-10T05:15:41.472Z,74.90
2023-04-10T05:16:12.879Z,74.67
2023-04-10T05:16:44.370Z,74.58
2023-04-10T05:17:16.976Z,74.63
2023-04-10T05:17:51.081Z,74.80
2023-04-10T05:18:23.735Z,75.22
2023-04-10T05:18:55.981Z,74.69
2023-04-10T05:19:27.525Z,75.01
2023-04-10T05:19:58.948Z,74.65
2023-04-10T05:20:30.352Z,74.82
2023-04-10T05:21:01.818Z,74.91
2023-04-10T05:21:33.318Z,74.59
2023-04-10T05:22:04.739Z,74.81
2023-04-10T05:22:36.437Z,75.19
2023-04-10T05:23:07.789Z,74.88
2023-04-10T05:23:39.228Z,75.03
2023-04-10T05:24:10.604Z,74.31
2023-04-10T05:24:42.198Z,74.39
2023-04-10T05:25:13.777Z,74.50
2023-04-10T05:25:45.351Z,74.64
2023-04-10T05:26:17.070Z,75.15
2023-04-10T05:26:48.426Z,74.55
2023-04-10T05:27:20.202Z,74.89
2023-04-10T05:27:51.669Z,74.63
2023-04-10T05:28:23.274Z,74.76
2023-04-10T05:28:55.029Z,74.79
2023-04-10T05:29:26.746Z,74.87
2023-04-10T05:29:58.106Z,74.48
2023-04-10T05:30:29.797Z,74.98
2023-04-10T05:31:01.224Z,74.82
2023-04-10T05:31:32.855Z,74.62
2023-04-10T05:32:04.407Z,74.80
2023-04-10T05:32:35.860Z,74.93
2023-04-10T05:33:07.530Z,74.99
2023-04-10T05:33:39.078Z,74.58
2023-04-10T05:34:10.685Z,74.99
2023-04-10T05:34:42.147Z,74.61
2023-04-10T05:35:13.595Z,74.39
2023-04-10T05:35:46.528Z,74.87
2023-04-10T05:36:18.347Z,74.55
2023-04-10T05:36:49.783Z,74.69
2023-04-10T05:37:21.173Z,74.88
2023-04-10T05:37:52.836Z,74.81
2023-04-10T05:38:24.820Z,74.82
2023-04-10T05:38:56.487Z,74.66
2023-04-10T05:39:28.046Z,74.69
2023-04-10T05:39:59.894Z,74.48
2023-04-10T05:40:31.421Z,74.69
2023-04-10T05:41:03.148Z,74.42
2023-04-10T05:41:34.840Z,74.27
2023-04-10T05:42:06.241Z,74.53
2023-04-10T05:42:37.816Z,74.79
2023-04-10T05:43:09.578Z,74.57
2023-04-10T05:43:41.005Z,74.52
2023-04-10T05:44:12.591Z,74.59
2023-04-10T05:44:45.410Z,74.31
2023-04-10T05:45:16.923Z,74.35
2023-04-10T05:45:48.524Z,74.39
2023-04-10T05:46:20.002Z,74.35
2023-04-10T05:46:51.582Z,73.98
2023-04-10T05:47:23.248Z,74.18
2023-04-10T05:47:54.861Z,74.20
2023-04-10T05:48:26.335Z,74.31
2023-04-10T05:48:58.393Z,74.02
2023-04-10T05:49:30.035Z,74.62
2023-04-10T05:50:01.500Z,74.39
2023-04-10T05:50:35.292Z,74.76
2023-04-10T05:51:07.128Z,74.23
2023-04-10T05:51:38.882Z,74.01
2023-04-10T05:52:10.355Z,74.29
2023-04-10T05:52:41.746Z,74.04
2023-04-10T05:53:14.529Z,74.42
2023-04-10T05:53:45.903Z,73.94
2023-04-10T05:54:17.376Z,73.93
2023-04-10T05:54:48.815Z,74.32
2023-04-10T05:55:20.298Z,74.31
2023-04-10T05:55:51.741Z,74.27
2023-04-10T05:56:23.191Z,74.62
2023-04-10T05:56:54.625Z,74.49
2023-04-10T05:57:26.146Z,74.26
2023-04-10T05:57:57.744Z,74.63
2023-04-10T05:58:29.544Z,74.35
2023-04-10T05:59:00.885Z,74.38
2023-04-10T05:59:32.293Z,74.29
2023-04-10T06:00:04.355Z,74.16
2023-04-10T06:00:37.280Z,74.41
2023-04-10T06:01:08.779Z,74.07
2023-04-10T06:01:42.317Z,74.34
2023-04-10T06:02:13.891Z,74.15
2023-04-10T06:02:45.751Z,74.71
2023-04-10T06:03:17.331Z,74.30
2023-04-10T06:03:48.990Z,74.09
2023-04-10T06:04:21.710Z,74.05
2023-04-10T06:04:53.591Z,74.20
2023-04-10T06:05:25.386Z,74.04
2023-04-10T06:05:58.156Z,73.68
2023-04-10T06:06:29.785Z,73.60
2023-04-10T06:07:01.391Z,73.57
2023-04-10T06:07:33.206Z,74.33
2023-04-10T06:08:04.920Z,73.82
2023-04-10T06:08:36.350Z,74.00
2023-04-10T06:09:07.756Z,73.77
2023-04-10T06:09:39.156Z,73.92
2023-04-10T06:10:10.891Z,74.07
2023-04-10T06:10:42.695Z,73.56
2023-04-10T06:11:14.362Z,73.25
2023-04-10T06:11:45.984Z,73.64
2023-04-10T06:12:18.181Z,73.59
2023-04-10T06:12:49.674Z,73.64
2023-04-10T06:13:21.563Z,73.66
2023-04-10T06:13:52.982Z,73.37
2023-04-10T06:14:24.436Z,73.79
2023-04-10T06:14:55.890Z,73.76
2023-04-10T06:15:27.635Z,73.86
2023-04-10T06:15:59.125Z,73.74
2023-04-10T06:16:30.881Z,73.81
2023-04-10T06:17:02.435Z,74.21
2023-04-10T06:17:33.836Z,73.59
2023-04-10T06:18:05.405Z,73.12
2023-04-10T06:18:38.254Z,73.01
2023-04-10T06:19:09.759Z,72.88
2023-04-10T06:19:41.117Z,73.17
2023-04-10T06:20:12.827Z,72.95
2023-04-10T06:20:44.265Z,73.63
2023-04-10T06:21:15.646Z,73.94
2023-04-10T06:21:47.167Z,73.63
2023-04-10T06:22:18.589Z,73.45
2023-04-10T06:22:50.155Z,73.14
2023-04-10T06:23:21.696Z,73.77
2023-04-10T06:23:53.596Z,73.35
2023-04-10T06:24:25.353Z,73.43
2023-04-10T06:24:57.000Z,73.25
2023-04-10T06:25:28.559Z,73.12
2023-04-10T06:26:01.028Z,73.06
2023-04-10T06:26:32.472Z,73.23
2023-04-10T06:27:03.998Z,73.07
2023-04-10T06:27:36.059Z,73.32
2023-04-10T06:28:07.492Z,73.21
2023-04-10T06:28:38.926Z,72.96
2023-04-10T06:29:10.902Z,73.21
2023-04-10T06:29:42.328Z,72.64
2023-04-10T06:30:13.784Z,72.96
2023-04-10T06:30:45.229Z,72.75
2023-04-10T06:31:23.700Z,72.61
2023-04-10T06:31:55.620Z,73.14
2023-04-10T06:32:27.226Z,72.83
2023-04-10T06:32:58.995Z,72.80
2023-04-10T06:33:30.712Z,72.49
2023-04-10T06:34:02.308Z,72.83
2023-04-10T06:34:33.744Z,72.45
2023-04-10T06:35:05.897Z,72.15
2023-04-10T06:35:37.771Z,72.57
2023-04-10T06:36:09.312Z,72.25
2023-04-10T06:36:40.974Z,72.33
2023-04-10T06:37:12.333Z,72.51
2023-04-10T06:37:44.161Z,72.55
2023-04-10T06:38:16.006Z,72.75
2023-04-10T06:38:47.491Z,72.70
2023-04-10T06:39:19.496Z,72.32
2023-04-10T06:39:51.257Z,72.40
2023-04-10T06:40:22.866Z,71.80
2023-04-10T06:40:54.307Z,72.46
2023-04-10T06:41:25.708Z,72.48
2023-04-10T06:41:57.742Z,72.56
2023-04-10T06:42:29.122Z,72.44
2023-04-10T06:43:01.325Z,72.14
2023-04-10T06:43:36.793Z,72.49
2023-04-10T06:44:08.246Z,72.33
2023-04-10T06:44:39.655Z,72.23
2023-04-10T06:45:11.296Z,71.99
2023-04-10T06:45:42.748Z,72.36
2023-04-10T06:46:14.398Z,72.07
2023-04-10T06:46:46.313Z,72.21
2023-04-10T06:47:18.233Z,72.02
2023-04-10T06:47:49.709Z,72.11
2023-04-10T06:48:21.186Z,72.00
2023-04-10T06:48:52.816Z,72.02
2023-04-10T06:49:24.544Z,71.76
2023-04-10T06:49:55.952Z,71.91
2023-04-10T06:50:27.658Z,71.52
2023-04-10T06:51:00.855Z,71.75
2023-04-10T06:51:32.331Z,71.50
2023-04-10T06:52:03.898Z,71.70
2023-04-10T06:52:35.470Z,71.54
2023-04-10T06:53:06.999Z,71.59
2023-04-10T06:53:38.537Z,71.46
2023-04-10T06:54:09.920Z,71.41
2023-04-10T06:54:41.529Z,71.49
2023-04-10T06:55:13.289Z,71.26
2023-04-10T06:55:44.708Z,71.07
2023-04-10T06:56:16.473Z,70.82
2023-04-10T06:56:47.858Z,71.28
2023-04-10T06:57:19.325Z,71.07
2023-04-10T06:57:51.018Z,71.40
2023-04-10T06:58:22.642Z,71.39
2023-04-10T06:58:54.295Z,71.41
2023-04-10T06:59:25.923Z,71.46
2023-04-10T06:59:57.423Z,71.49
2023-04-10T07:00:28.899Z,70.54
2023-04-10T07:01:04.836Z,70.33
2023-04-10T07:01:36.582Z,70.90
2023-04-10T07:02:08.295Z,70.99
2023-04-10T07:02:39.695Z,70.98
2023-04-10T07:03:11.241Z,70.91
2023-04-10T07:03:42.709Z,70.19